Time;durP1;ratioP1;P1;durP2;ratioP2;P2;SDS_P1;SDS_P2;PMS_P1;PMS_P2;Temp;Humidity;BMP_temperature;BMP_pressure;BME280_temperature;BME280_humidity;BME280_pressure;Samples;Min_cycle;Max_cycle;Signal;HPM_P1;HPM_P2
2022/09/06 00:01:00;;;;;;;0.88;0.50;;;;;;;28.60;43.83;99339.19;5101822;28;20090;-56
2022/09/06 00:03:28;;;;;;;0.45;0.45;;;;;;;28.63;43.73;99349.56;5098859;28;20078;-65
2022/09/06 00:05:54;;;;;;;0.55;0.50;;;;;;;28.62;43.66;99347.97;5107622;28;20575;-65
2022/09/06 00:08:20;;;;;;;1.23;0.60;;;;;;;28.62;43.73;99348.78;5103199;28;20131;-56
2022/09/06 00:10:45;;;;;;;0.73;0.50;;;;;;;28.61;43.80;99352.03;5121178;28;20035;-56
2022/09/06 00:13:12;;;;;;;0.65;0.47;;;;;;;28.61;43.60;99363.28;5117570;28;20046;-56
2022/09/06 00:15:37;;;;;;;0.90;0.50;;;;;;;28.63;43.64;99355.19;5119749;28;20127;-56
2022/09/06 00:18:04;;;;;;;1.20;0.52;;;;;;;28.61;43.63;99357.66;5098837;28;20075;-65
2022/09/06 00:20:31;;;;;;;1.23;0.60;;;;;;;28.60;43.55;99350.44;5092983;28;20036;-65
2022/09/06 00:23:01;;;;;;;2.08;0.52;;;;;;;28.59;43.49;99349.66;5086273;28;20044;-65
2022/09/06 00:25:28;;;;;;;0.65;0.50;;;;;;;28.61;43.59;99352.81;5109590;28;20134;-56
2022/09/06 00:27:57;;;;;;;0.93;0.50;;;;;;;28.61;43.71;99357.66;5101855;28;20047;-56
2022/09/06 00:30:24;;;;;;;0.73;0.60;;;;;;;28.61;43.38;99347.19;5101742;28;20043;-56
2022/09/06 00:32:49;;;;;;;0.55;0.40;;;;;;;28.61;43.71;99350.00;5094104;28;20394;-56
2022/09/06 00:35:18;;;;;;;1.23;0.60;;;;;;;28.62;43.72;99354.41;5111635;28;20637;-65
2022/09/06 00:37:43;;;;;;;1.98;0.60;;;;;;;28.61;43.59;99352.81;5094318;28;20546;-57
2022/09/06 00:40:08;;;;;;;1.42;0.47;;;;;;;28.59;43.68;99354.47;5099771;28;20131;-64
2022/09/06 00:42:34;;;;;;;0.70;0.50;;;;;;;28.59;43.58;99355.28;5096247;28;20098;-65
2022/09/06 00:45:00;;;;;;;2.22;0.70;;;;;;;28.57;43.82;99352.06;5085723;28;20059;-57
2022/09/06 00:47:27;;;;;;;0.60;0.43;;;;;;;28.57;43.67;99346.44;5091936;28;20068;-56
2022/09/06 00:49:56;;;;;;;0.77;0.40;;;;;;;28.55;43.36;99348.91;5087648;28;20126;-64
2022/09/06 00:52:22;;;;;;;0.77;0.47;;;;;;;28.55;43.50;99343.28;5086698;28;20040;-57
2022/09/06 00:54:49;;;;;;;0.60;0.40;;;;;;;28.57;43.75;99351.28;5118903;28;20036;-65
2022/09/06 00:57:16;;;;;;;1.17;0.60;;;;;;;28.56;43.54;99344.88;5108513;28;20449;-56
2022/09/06 00:59:43;;;;;;;1.88;0.70;;;;;;;28.57;43.59;99352.06;5093529;28;20506;-65
2022/09/06 01:02:08;;;;;;;1.95;0.50;;;;;;;28.58;43.53;99344.47;5118088;28;20082;-57
2022/09/06 01:04:36;;;;;;;0.70;0.60;;;;;;;28.56;43.52;99347.69;5094640;28;20063;-65
2022/09/06 01:07:29;;;;;;;1.52;0.60;;;;;;;28.57;43.71;99345.66;5095169;28;20044;-64
2022/09/06 01:10:24;;;;;;;1.52;0.60;;;;;;;28.56;43.77;99336.41;5099008;28;20511;-56
2022/09/06 01:12:59;;;;;;;0.85;0.50;;;;;;;28.55;43.42;99343.28;5096878;28;20052;-57
2022/09/06 01:15:49;;;;;;;0.70;0.50;;;;;;;28.54;43.49;99340.91;5091494;28;20047;-57
2022/09/06 01:18:33;;;;;;;0.57;0.47;;;;;;;28.53;43.39;99340.09;5111559;28;20143;-56
2022/09/06 01:21:17;;;;;;;0.35;0.35;;;;;;;28.53;43.22;99342.91;5119793;28;20044;-56
2022/09/06 01:23:54;;;;;;;1.15;0.60;;;;;;;28.52;43.38;99342.13;5107863;28;20128;-57
2022/09/06 01:26:47;;;;;;;0.57;0.40;;;;;;;28.52;43.30;99344.94;5095784;28;20044;-57
2022/09/06 01:29:32;;;;;;;1.77;0.50;;;;;;;28.52;43.38;99352.59;5091559;28;20500;-65
2022/09/06 01:32:41;;;;;;;3.60;0.50;;;;;;;28.52;43.24;99355.41;5102307;28;20042;-65
2022/09/06 01:35:09;;;;;;;0.88;0.40;;;;;;;28.54;43.15;99354.97;5103295;28;20439;-65
2022/09/06 01:37:35;;;;;;;0.65;0.50;;;;;;;28.52;43.22;99358.22;5101038;28;20130;-65
2022/09/06 01:40:01;;;;;;;0.98;0.50;;;;;;;28.50;43.01;99352.19;5088368;28;20071;-65
2022/09/06 01:42:29;;;;;;;0.30;0.30;;;;;;;28.50;43.06;99353.03;5090104;28;20471;-57
2022/09/06 01:45:19;;;;;;;0.85;0.50;;;;;;;28.48;43.20;99349.81;5078748;28;20126;-56
2022/09/06 01:48:03;;;;;;;0.47;0.40;;;;;;;28.52;42.93;99356.19;5054781;28;20044;-64
2022/09/06 01:50:45;;;;;;;0.85;0.50;;;;;;;28.51;42.79;99354.59;5097406;28;20037;-65
2022/09/06 01:53:35;;;;;;;0.75;0.50;;;;;;;28.50;42.67;99353.03;5091490;28;20083;-56
2022/09/06 01:56:31;;;;;;;0.90;0.50;;;;;;;28.48;42.84;99349.81;5085942;28;20045;-61
2022/09/06 01:59:29;;;;;;;1.75;0.50;;;;;;;28.49;42.97;99345.78;5027074;28;20456;-56
2022/09/06 02:02:14;;;;;;;0.90;0.45;;;;;;;28.47;42.66;99353.88;5044649;28;20489;-57
2022/09/06 02:05:08;;;;;;;0.60;0.45;;;;;;;28.48;43.04;99344.19;5090186;28;20197;-57
2022/09/06 02:07:37;;;;;;;2.03;0.50;;;;;;;28.47;42.88;99348.25;5052390;28;20503;-65
2022/09/06 02:10:08;;;;;;;0.95;0.50;;;;;;;28.48;42.87;99343.41;5111896;28;20035;-65
2022/09/06 02:12:36;;;;;;;0.50;0.40;;;;;;;28.48;42.85;99346.22;5111798;28;20050;-65
2022/09/06 02:15:06;;;;;;;2.25;0.55;;;;;;;28.48;42.69;99341.38;5097594;28;20101;-65
2022/09/06 02:17:38;;;;;;;0.65;0.43;;;;;;;28.45;42.79;99339.44;5099469;28;20047;-65
2022/09/06 02:20:15;;;;;;;0.40;0.30;;;;;;;28.47;42.90;99347.44;5112464;28;20040;-65
2022/09/06 02:22:45;;;;;;;0.93;0.50;;;;;;;28.46;42.79;99349.47;5088246;28;20524;-57
2022/09/06 02:25:19;;;;;;;1.17;0.60;;;;;;;28.48;42.79;99354.66;5096447;28;20100;-56
2022/09/06 02:27:45;;;;;;;0.68;0.30;;;;;;;28.47;42.97;99359.50;5091778;28;20062;-65
2022/09/06 02:30:11;;;;;;;0.55;0.30;;;;;;;28.49;42.81;99356.25;5085063;28;20032;-57
2022/09/06 02:32:43;;;;;;;0.52;0.30;;;;;;;28.46;42.74;99357.91;5104404;28;20047;-56
2022/09/06 02:35:13;;;;;;;0.93;0.50;;;;;;;28.46;42.90;99357.91;5116541;28;20055;-65
2022/09/06 02:37:40;;;;;;;0.65;0.47;;;;;;;28.47;43.08;99364.34;5100864;28;20063;-56
2022/09/06 02:40:06;;;;;;;0.40;0.40;;;;;;;28.47;42.95;99359.50;5098419;28;20039;-56
2022/09/06 02:42:32;;;;;;;0.55;0.45;;;;;;;28.48;42.84;99363.91;5089170;28;20523;-65
2022/09/06 02:44:59;;;;;;;0.50;0.40;;;;;;;28.49;43.07;99364.69;5086141;28;20032;-65
2022/09/06 02:47:24;;;;;;;0.75;0.50;;;;;;;28.47;43.08;99362.31;5097401;28;20048;-65
2022/09/06 02:49:49;;;;;;;1.42;0.40;;;;;;;28.44;43.13;99356.75;5095997;28;20412;-59
2022/09/06 02:52:16;;;;;;;1.45;0.47;;;;;;;28.45;43.46;99356.31;5088323;28;20043;-65
2022/09/06 02:54:41;;;;;;;1.38;0.60;;;;;;;28.46;43.30;99351.50;5084408;28;20040;-65
2022/09/06 02:57:06;;;;;;;0.30;0.30;;;;;;;28.45;43.46;99350.69;5086330;28;20409;-65
2022/09/06 02:59:32;;;;;;;1.95;0.65;;;;;;;28.49;43.33;99353.44;5084201;28;20028;-65
2022/09/06 03:01:57;;;;;;;0.50;0.40;;;;;;;28.47;43.33;99355.88;5087037;28;20562;-57
2022/09/06 03:04:22;;;;;;;0.40;0.40;;;;;;;28.48;43.32;99354.66;5091814;28;20043;-56
2022/09/06 03:06:48;;;;;;;1.15;0.60;;;;;;;28.47;43.34;99350.25;5112389;28;20044;-65
2022/09/06 03:09:17;;;;;;;1.17;0.60;;;;;;;28.46;43.38;99352.28;5106658;28;20040;-65
2022/09/06 03:11:42;;;;;;;1.40;0.70;;;;;;;28.46;43.49;99351.50;5127882;28;20433;-65
2022/09/06 03:14:10;;;;;;;0.90;0.50;;;;;;;28.48;43.55;99349.03;5108051;28;20564;-57
2022/09/06 03:16:37;;;;;;;1.15;0.50;;;;;;;28.45;43.52;99347.09;5097043;28;20059;-65
2022/09/06 03:19:03;;;;;;;0.45;0.40;;;;;;;28.45;43.58;99349.91;5107114;28;20040;-57
2022/09/06 03:21:28;;;;;;;0.60;0.55;;;;;;;28.45;43.80;99350.69;5093624;28;20044;-64
2022/09/06 03:23:54;;;;;;;0.93;0.52;;;;;;;28.45;43.53;99350.69;5094255;28;20117;-65
2022/09/06 03:26:19;;;;;;;0.88;0.50;;;;;;;28.45;43.74;99350.69;5088297;28;20036;-65
2022/09/06 03:28:44;;;;;;;0.50;0.45;;;;;;;28.45;43.52;99350.69;5095622;28;20071;-65
2022/09/06 03:31:10;;;;;;;1.00;0.40;;;;;;;28.46;43.53;99357.13;5108810;28;20384;-56
2022/09/06 03:33:35;;;;;;;0.60;0.60;;;;;;;28.45;43.35;99359.13;5098077;28;20043;-65
2022/09/06 03:36:02;;;;;;;0.60;0.50;;;;;;;28.45;43.51;99359.13;5089572;28;20484;-65
2022/09/06 03:38:28;;;;;;;0.88;0.45;;;;;;;28.44;43.42;99360.38;5103714;28;20047;-65
2022/09/06 03:40:54;;;;;;;0.70;0.30;;;;;;;28.44;43.19;99359.56;5107659;28;20567;-57
2022/09/06 03:43:21;;;;;;;0.55;0.40;;;;;;;28.45;43.39;99361.94;5091763;28;20055;-56
2022/09/06 03:45:49;;;;;;;0.80;0.50;;;;;;;28.46;43.33;99363.53;5102196;28;20051;-56
2022/09/06 03:48:15;;;;;;;1.10;0.60;;;;;;;28.46;43.43;99363.53;5082475;28;20094;-65
2022/09/06 03:50:50;;;;;;;0.32;0.30;;;;;;;28.45;43.44;99367.56;5096433;28;20689;-65
2022/09/06 03:53:17;;;;;;;1.05;0.50;;;;;;;28.46;43.52;99371.97;5103887;28;20156;-56
2022/09/06 03:55:47;;;;;;;0.60;0.40;;;;;;;28.45;43.44;99367.56;5092866;28;20072;-64
2022/09/06 03:58:13;;;;;;;2.67;0.60;;;;;;;28.45;43.56;99366.78;5097690;28;20043;-65
2022/09/06 04:00:38;;;;;;;0.57;0.40;;;;;;;28.44;43.60;99360.38;5092854;28;20090;-65
2022/09/06 04:03:04;;;;;;;0.65;0.50;;;;;;;28.43;43.62;99363.59;5100037;28;20462;-65
2022/09/06 04:05:29;;;;;;;0.60;0.50;;;;;;;28.45;43.41;99356.31;5105407;28;20036;-64
2022/09/06 04:07:55;;;;;;;0.40;0.40;;;;;;;28.45;43.53;99358.34;5092130;28;20091;-56
2022/09/06 04:10:20;;;;;;;0.55;0.40;;;;;;;28.41;43.20;99355.56;5089795;28;20109;-64
2022/09/06 04:12:45;;;;;;;0.82;0.40;;;;;;;28.46;43.50;99357.13;5118987;28;20124;-65
2022/09/06 04:15:11;;;;;;;0.60;0.40;;;;;;;28.44;43.59;99362.38;5099487;28;20050;-65
2022/09/06 04:17:36;;;;;;;0.88;0.50;;;;;;;28.43;43.69;99355.16;5090968;28;20036;-65
2022/09/06 04:20:03;;;;;;;0.82;0.50;;;;;;;28.43;43.47;99353.16;5087563;28;20404;-65
2022/09/06 04:22:29;;;;;;;0.68;0.47;;;;;;;28.40;43.46;99348.38;5082318;28;20055;-56
2022/09/06 04:24:54;;;;;;;0.32;0.30;;;;;;;28.42;43.24;99351.53;5087839;28;20032;-65
2022/09/06 04:27:19;;;;;;;0.93;0.57;;;;;;;28.39;43.59;99338.34;5107149;28;20768;-56
2022/09/06 04:29:45;;;;;;;0.73;0.52;;;;;;;28.43;43.66;99335.44;5092374;28;20475;-65
2022/09/06 04:32:10;;;;;;;0.35;0.35;;;;;;;28.41;43.36;99333.06;5099863;28;20050;-57
2022/09/06 04:34:35;;;;;;;0.63;0.40;;;;;;;28.43;43.63;99336.28;5121789;28;20678;-65
2022/09/06 04:37:01;;;;;;;0.77;0.47;;;;;;;28.39;43.53;99340.34;5096383;28;20047;-57
2022/09/06 04:39:26;;;;;;;0.93;0.50;;;;;;;28.42;43.53;99331.84;5094908;28;20491;-65
2022/09/06 04:41:52;;;;;;;1.33;0.40;;;;;;;28.41;43.56;99333.06;5101605;28;20101;-56
2022/09/06 04:44:17;;;;;;;1.33;0.63;;;;;;;28.38;43.57;99324.72;5100011;28;20043;-65
2022/09/06 04:46:42;;;;;;;0.40;0.40;;;;;;;28.40;43.36;99339.91;5089622;28;20041;-65
2022/09/06 04:49:08;;;;;;;0.70;0.43;;;;;;;28.39;43.62;99337.53;5086311;28;20064;-56
2022/09/06 04:51:33;;;;;;;0.63;0.50;;;;;;;28.40;43.34;99341.94;5083412;28;20405;-65
2022/09/06 04:53:59;;;;;;;0.52;0.43;;;;;;;28.42;43.48;99343.09;5096261;27;20145;-64
2022/09/06 04:56:25;;;;;;;0.40;0.40;;;;;;;28.42;43.33;99334.66;5091167;28;20040;-56
2022/09/06 04:58:52;;;;;;;0.80;0.45;;;;;;;28.42;43.47;99340.28;5089536;28;20036;-65
2022/09/06 05:01:19;;;;;;;1.20;0.47;;;;;;;28.42;43.42;99340.28;5092577;28;20044;-65
2022/09/06 05:03:44;;;;;;;1.00;0.60;;;;;;;28.44;43.74;99332.22;5096167;28;20504;-65
2022/09/06 05:06:13;;;;;;;0.82;0.50;;;;;;;28.45;43.41;99333.81;5113847;28;20054;-64
2022/09/06 05:08:40;;;;;;;0.60;0.38;;;;;;;28.48;43.63;99341.38;5088919;28;20523;-65
2022/09/06 05:11:06;;;;;;;0.90;0.60;;;;;;;28.47;43.52;99330.56;5103359;28;20044;-64
2022/09/06 05:13:33;;;;;;;1.52;0.57;;;;;;;28.48;43.24;99337.78;5104513;28;20048;-64
2022/09/06 05:16:02;;;;;;;1.05;0.60;;;;;;;28.51;43.65;99345.38;5092852;28;20508;-65
2022/09/06 05:18:28;;;;;;;0.63;0.43;;;;;;;28.51;43.29;99348.97;5100046;28;20131;-56
2022/09/06 05:20:54;;;;;;;0.93;0.50;;;;;;;28.51;43.63;99343.34;5106582;28;20039;-57
2022/09/06 05:23:20;;;;;;;3.90;0.70;;;;;;;28.54;43.71;99352.16;5111770;28;20043;-56
2022/09/06 05:25:46;;;;;;;7.93;0.68;;;;;;;28.57;43.79;99354.09;5087004;28;20048;-57
2022/09/06 05:28:11;;;;;;;5.82;1.00;;;;;;;28.58;43.58;99361.34;5088291;28;20044;-63
2022/09/06 05:30:37;;;;;;;8.30;0.68;;;;;;;28.59;43.76;99365.75;5099486;28;20405;-57
2022/09/06 05:33:02;;;;;;;5.10;0.70;;;;;;;28.60;43.35;99364.50;5115190;28;20517;-63
2022/09/06 05:35:31;;;;;;;6.90;0.60;;;;;;;28.62;43.26;99376.13;5110819;28;20092;-64
2022/09/06 05:37:56;;;;;;;4.68;0.77;;;;;;;28.60;43.34;99367.31;5105757;28;20044;-57
2022/09/06 05:40:21;;;;;;;6.35;1.27;;;;;;;28.62;43.41;99370.50;5095114;28;20538;-62
2022/09/06 05:42:47;;;;;;;1.10;0.50;;;;;;;28.64;43.39;99373.66;5095450;28;20173;-64
2022/09/06 05:45:12;;;;;;;2.97;0.70;;;;;;;28.64;43.36;99368.03;5101988;28;20058;-63
2022/09/06 05:47:38;;;;;;;4.75;0.60;;;;;;;28.63;43.38;99374.91;5098673;28;20044;-64
2022/09/06 05:50:03;;;;;;;2.10;0.60;;;;;;;28.63;43.21;99383.34;5102826;28;20410;-64
2022/09/06 05:52:29;;;;;;;3.53;0.70;;;;;;;28.66;43.15;99383.28;5110612;28;20074;-64
2022/09/06 05:54:54;;;;;;;3.63;0.60;;;;;;;28.68;43.33;99375.19;5094638;28;20121;-59
2022/09/06 05:57:20;;;;;;;0.98;0.57;;;;;;;28.69;43.37;99378.81;5106220;28;20047;-63
2022/09/06 05:59:45;;;;;;;3.47;0.65;;;;;;;28.70;43.40;99378.38;5109031;28;20053;-63
2022/09/06 06:02:11;;;;;;;1.33;0.50;;;;;;;28.65;43.31;99375.28;5100847;28;20036;-64
2022/09/06 06:04:36;;;;;;;2.20;0.60;;;;;;;28.39;43.62;99363.66;5088871;28;20048;-56
2022/09/06 06:07:01;;;;;;;1.02;0.60;;;;;;;28.24;44.85;99379.16;5101944;28;20453;-64
2022/09/06 06:09:27;;;;;;;0.65;0.40;;;;;;;28.16;44.86;99377.69;5101928;28;20090;-56
2022/09/06 06:11:52;;;;;;;0.82;0.60;;;;;;;28.11;45.07;99378.16;5087230;28;20729;-56
2022/09/06 06:14:18;;;;;;;2.72;0.70;;;;;;;28.08;45.26;99379.81;5098570;28;20434;-56
2022/09/06 06:16:43;;;;;;;0.50;0.40;;;;;;;28.12;45.22;99388.19;5087373;28;20078;-64
2022/09/06 06:19:08;;;;;;;1.77;0.65;;;;;;;28.07;45.46;99380.22;5085313;28;20048;-64
2022/09/06 06:21:37;;;;;;;0.60;0.40;;;;;;;28.09;45.36;99383.44;5110852;28;20093;-56
2022/09/06 06:24:04;;;;;;;1.25;0.60;;;;;;;28.08;45.52;99387.47;5092208;28;20058;-64
2022/09/06 06:26:32;;;;;;;1.02;0.60;;;;;;;28.04;45.51;99384.69;5097135;28;20043;-57
2022/09/06 06:29:00;;;;;;;1.13;0.55;;;;;;;28.06;45.76;99378.63;5106170;28;20421;-64
2022/09/06 06:31:29;;;;;;;1.20;0.50;;;;;;;28.07;45.54;99383.03;5097253;28;20040;-56
2022/09/06 06:33:55;;;;;;;1.95;0.55;;;;;;;28.06;45.69;99387.06;5099115;28;20076;-56
2022/09/06 06:36:23;;;;;;;0.65;0.50;;;;;;;28.04;45.68;99386.72;5089120;28;20123;-56
2022/09/06 06:38:51;;;;;;;0.90;0.60;;;;;;;28.06;45.88;99390.69;5087994;28;20466;-64
2022/09/06 06:41:18;;;;;;;1.92;0.60;;;;;;;28.06;45.66;99390.69;5092178;28;20507;-56
2022/09/06 06:43:43;;;;;;;4.22;1.20;;;;;;;28.08;44.27;99393.09;5091270;28;20056;-55
2022/09/06 06:46:12;;;;;;;6.25;2.08;;;;;;;28.10;42.99;99397.06;5101162;28;20040;-65
2022/09/06 06:48:42;;;;;;;17.73;3.30;;;;;;;28.10;43.08;99390.63;5091212;28;20481;-63
2022/09/06 06:51:09;;;;;;;13.52;4.57;;;;;;;28.11;43.33;99392.22;5078321;28;20040;-63
2022/09/06 06:53:35;;;;;;;10.25;4.65;;;;;;;28.10;42.86;99390.63;5087058;28;20400;-54
2022/09/06 06:56:11;;;;;;;7.30;3.53;;;;;;;28.04;42.76;99383.91;5094428;28;20035;-63
2022/09/06 06:58:36;;;;;;;14.38;3.30;;;;;;;28.07;42.69;99372.56;5087544;28;20052;-53
2022/09/06 07:01:02;;;;;;;12.38;2.70;;;;;;;28.07;42.32;99368.97;5080726;28;20127;-64
2022/09/06 07:03:27;;;;;;;6.43;1.90;;;;;;;28.02;43.38;99370.28;5083785;28;20380;-60
2022/09/06 07:05:53;;;;;;;8.82;2.42;;;;;;;27.95;43.24;99368.38;5085462;28;20051;-52
2022/09/06 07:08:18;;;;;;;9.27;2.20;;;;;;;28.01;43.18;99365.88;5098283;28;20042;-54
2022/09/06 07:10:43;;;;;;;10.10;2.20;;;;;;;28.07;43.17;99358.53;5091711;28;20048;-53
2022/09/06 07:13:09;;;;;;;8.90;2.50;;;;;;;28.06;42.88;99361.75;5088245;28;20076;-54
2022/09/06 07:15:34;;;;;;;8.18;2.63;;;;;;;28.07;42.58;99352.09;5083671;28;20400;-64
2022/09/06 07:18:01;;;;;;;10.98;2.08;;;;;;;28.10;42.64;99356.88;5100081;28;20039;-64
2022/09/06 07:20:26;;;;;;;11.32;2.70;;;;;;;28.09;42.56;99353.28;5106222;28;20051;-55
2022/09/06 07:23:04;;;;;;;10.05;2.30;;;;;;;28.09;42.52;99342.03;5093349;28;20380;-63
2022/09/06 07:25:30;;;;;;;9.02;1.92;;;;;;;28.10;42.60;99337.22;5090818;28;20074;-52
2022/09/06 07:28:02;;;;;;;6.03;1.75;;;;;;;28.13;42.41;99337.13;5093824;28;20094;-54
2022/09/06 07:30:29;;;;;;;8.07;1.87;;;;;;;28.14;42.95;99332.31;5096335;28;20090;-52
2022/09/06 07:32:57;;;;;;;6.95;1.98;;;;;;;28.16;43.28;99344.72;5092247;28;20277;-54
2022/09/06 07:35:23;;;;;;;9.75;1.95;;;;;;;28.13;42.55;99341.97;5098643;28;20056;-68
2022/09/06 07:37:56;;;;;;;12.25;1.70;;;;;;;28.09;42.62;99355.31;5087400;28;20040;-50
2022/09/06 07:40:26;;;;;;;6.25;1.90;;;;;;;28.09;42.24;99353.28;5113151;28;20139;-54
2022/09/06 07:42:54;;;;;;;7.80;1.83;;;;;;;28.13;42.75;99347.59;5101830;28;20131;-55
2022/09/06 07:45:20;;;;;;;14.30;2.25;;;;;;;28.16;42.98;99343.94;5093394;28;21090;-54
2022/09/06 07:47:53;;;;;;;13.32;2.92;;;;;;;28.12;44.04;99337.56;5094613;28;20076;-65
2022/09/06 07:50:18;;;;;;;;;;;;;;;28.18;42.41;99338.69;5099672;28;20412;-62
2022/09/06 07:52:43;;;;;;;8.05;2.08;;;;;;;28.17;42.41;99337.09;5090502;28;20404;-50
2022/09/06 07:55:09;;;;;;;8.48;2.33;;;;;;;28.13;42.10;99330.72;5094867;28;20044;-57
2022/09/06 07:57:35;;;;;;;12.23;2.47;;;;;;;28.02;42.98;99332.94;5089900;28;20123;-56
2022/09/06 08:00:01;;;;;;;9.52;2.13;;;;;;;27.92;43.41;99327.03;5092013;28;20051;-57
2022/09/06 08:02:26;;;;;;;11.50;2.40;;;;;;;27.89;43.71;99335.53;5092469;28;20049;-54
2022/09/06 08:04:52;;;;;;;8.00;2.15;;;;;;;27.85;43.96;99332.75;5090573;28;20055;-57
2022/09/06 08:07:17;;;;;;;10.85;2.35;;;;;;;27.82;43.82;99336.44;5097820;28;20048;-68
2022/09/06 08:09:43;;;;;;;8.15;2.70;;;;;;;27.81;43.80;99340.47;5087960;28;20478;-65
2022/09/06 08:12:08;;;;;;;15.07;2.55;;;;;;;27.82;43.88;99338.44;5093127;28;20486;-56
2022/09/06 08:14:34;;;;;;;8.32;2.22;;;;;;;27.79;43.93;99337.28;5086125;28;20062;-63
2022/09/06 08:17:00;;;;;;;10.57;2.08;;;;;;;27.76;43.87;99338.13;5088943;28;20094;-64
2022/09/06 08:19:27;;;;;;;11.50;2.17;;;;;;;27.76;43.89;99332.50;5098887;28;20077;-65
2022/09/06 08:21:55;;;;;;;10.65;2.20;;;;;;;27.82;43.77;99336.44;5094923;28;20113;-65
2022/09/06 08:24:21;;;;;;;11.00;2.30;;;;;;;27.80;43.39;99341.69;5087927;28;20047;-66
2022/09/06 08:26:46;;;;;;;10.52;2.35;;;;;;;27.85;43.52;99341.19;5090499;28;20048;-64
2022/09/06 08:29:12;;;;;;;13.10;2.40;;;;;;;27.84;43.69;99347.25;5092190;28;20124;-72
2022/09/06 08:31:40;;;;;;;10.63;2.58;;;;;;;27.88;43.80;99345.97;5102097;28;20046;-54
2022/09/06 08:34:06;;;;;;;12.85;5.40;;;;;;;27.92;43.66;99334.66;5071117;28;20424;-55
2022/09/06 08:36:32;;;;;;;12.80;4.65;;;;;;;27.95;43.56;99337.44;5090235;28;20483;-63
2022/09/06 08:38:59;;;;;;;15.90;3.85;;;;;;;27.94;43.56;99341.47;5092083;28;20054;-64
2022/09/06 08:41:43;;;;;;;11.35;3.63;;;;;;;27.96;43.58;99339.03;5093943;28;20037;-66
2022/09/06 08:44:16;;;;;;;12.50;3.47;;;;;;;27.97;43.34;99337.78;5102925;28;20093;-56
2022/09/06 08:46:52;;;;;;;10.07;2.85;;;;;;;27.98;43.20;99330.94;5095758;28;20571;-56
2022/09/06 08:49:18;;;;;;;7.88;2.17;;;;;;;28.01;43.32;99332.13;5102912;28;20500;-53
2022/09/06 08:52:02;;;;;;;10.05;2.33;;;;;;;27.99;43.40;99326.13;5088472;28;20070;-56
2022/09/06 08:54:42;;;;;;;14.82;3.25;;;;;;;28.03;43.50;99323.25;5083680;28;20040;-56
2022/09/06 08:57:29;;;;;;;11.80;2.08;;;;;;;28.03;43.96;99321.25;5075253;28;20050;-54
2022/09/06 08:59:59;;;;;;;14.32;2.08;;;;;;;28.05;43.44;99320.81;5091305;28;20043;-53
2022/09/06 09:02:25;;;;;;;9.50;2.47;;;;;;;28.07;43.75;99319.16;5081853;28;20046;-56
2022/09/06 09:05:03;;;;;;;16.38;3.63;;;;;;;28.09;43.75;99313.91;5099660;28;20486;-56
2022/09/06 09:07:41;;;;;;;15.85;5.05;;;;;;;28.14;43.75;99304.97;5101329;28;20047;-67
2022/09/06 09:10:40;;;;;;;13.63;4.63;;;;;;;28.15;43.94;99300.16;5097161;28;20397;-66
2022/09/06 09:13:08;;;;;;;13.20;3.65;;;;;;;28.14;43.98;99304.97;5064131;28;20080;-66
2022/09/06 09:15:35;;;;;;;11.95;2.92;;;;;;;28.16;43.93;99304.56;5093948;28;20052;-57
2022/09/06 09:18:01;;;;;;;12.52;2.90;;;;;;;28.14;44.04;99309.81;5086140;28;20040;-56
2022/09/06 09:20:27;;;;;;;15.15;3.20;;;;;;;28.15;44.03;99308.59;5084954;28;20068;-57
2022/09/06 09:22:52;;;;;;;10.52;2.60;;;;;;;28.17;44.36;99300.53;5091408;28;21078;-57
2022/09/06 09:25:22;;;;;;;15.60;2.50;;;;;;;28.21;44.22;99301.25;5095571;28;20089;-57
2022/09/06 09:27:56;;;;;;;8.27;2.00;;;;;;;28.24;44.20;99301.19;5097059;28;20479;-56
2022/09/06 09:30:26;;;;;;;11.50;2.40;;;;;;;28.28;44.04;99300.31;5093038;28;20523;-58
2022/09/06 09:32:51;;;;;;;12.27;1.90;;;;;;;28.30;44.09;99295.91;5086524;28;20167;-55
2022/09/06 09:35:32;;;;;;;13.27;2.33;;;;;;;28.32;44.13;99287.03;5083924;28;20506;-57
2022/09/06 09:38:06;;;;;;;11.85;2.45;;;;;;;28.34;44.22;99285.38;5092575;28;20082;-55
2022/09/06 09:41:03;;;;;;;13.10;2.50;;;;;;;28.40;43.78;99275.22;5091996;28;20044;-57
2022/09/06 09:43:36;;;;;;;10.55;2.13;;;;;;;28.45;43.65;99274.72;5102382;28;20557;-64
2022/09/06 09:46:16;;;;;;;11.88;3.03;;;;;;;28.41;43.52;99271.16;5081991;28;20444;-66
2022/09/06 09:49:12;;;;;;;9.13;2.50;;;;;;;28.41;43.53;99265.53;5088199;28;20613;-57
2022/09/06 09:51:39;;;;;;;12.18;2.97;;;;;;;28.42;43.63;99261.50;5075468;28;20130;-64
2022/09/06 09:54:10;;;;;;;9.88;2.28;;;;;;;28.43;43.47;99251.03;5102798;28;20040;-57
2022/09/06 09:56:44;;;;;;;8.90;2.40;;;;;;;28.44;43.62;99245.00;5087256;28;20093;-57
2022/09/06 09:59:40;;;;;;;9.05;2.00;;;;;;;28.43;43.62;99251.88;5087242;28;20054;-56
2022/09/06 10:02:37;;;;;;;7.10;2.47;;;;;;;28.50;43.67;99250.91;5097186;28;20131;-64
2022/09/06 10:05:12;;;;;;;6.25;1.80;;;;;;;28.54;43.21;99246.00;5098647;28;20071;-64
2022/09/06 10:07:42;;;;;;;9.65;1.80;;;;;;;28.57;42.96;99241.53;5099508;28;20060;-54
2022/09/06 10:10:14;;;;;;;5.35;1.58;;;;;;;28.58;43.12;99243.94;5095166;28;20415;-55
2022/09/06 10:12:41;;;;;;;4.05;1.50;;;;;;;28.60;42.92;99235.84;5106415;28;20524;-64
2022/09/06 10:15:30;;;;;;;3.85;1.50;;;;;;;28.61;43.04;99225.38;5088595;28;20330;-64
2022/09/06 10:17:56;;;;;;;5.55;1.58;;;;;;;28.65;42.92;99212.03;5097762;28;20052;-63
2022/09/06 10:20:31;;;;;;;4.75;1.55;;;;;;;28.66;43.00;99214.41;5107887;28;20127;-63
2022/09/06 10:23:24;;;;;;;3.88;1.35;;;;;;;28.71;42.77;99204.66;5096447;28;20134;-55
2022/09/06 10:26:07;;;;;;;3.15;1.20;;;;;;;28.68;42.15;99199.91;5085910;28;20137;-54
2022/09/06 10:28:35;;;;;;;4.95;1.27;;;;;;;28.51;43.05;99197.03;5102054;28;20046;-54
2022/09/06 10:31:21;;;;;;;2.47;1.10;;;;;;;28.34;43.32;99186.91;5087074;28;20083;-56
2022/09/06 10:34:15;;;;;;;2.80;1.10;;;;;;;28.36;43.16;99183.66;5092595;28;20048;-56
2022/09/06 10:36:54;;;;;;;2.97;1.10;;;;;;;28.41;42.78;99175.50;5100864;28;20044;-65
2022/09/06 10:39:28;;;;;;;2.08;1.15;;;;;;;28.41;42.70;99177.53;5106727;28;20039;-65
2022/09/06 10:42:19;;;;;;;3.80;1.38;;;;;;;28.42;42.61;99168.66;5100811;28;20048;-55
2022/09/06 10:45:15;;;;;;;3.05;1.00;;;;;;;28.46;42.49;99168.59;5087596;28;20086;-56
2022/09/06 10:47:55;;;;;;;1.70;1.00;;;;;;;28.46;42.28;99155.31;5088346;28;20139;-64
2022/09/06 10:50:29;;;;;;;1.70;1.08;;;;;;;28.49;42.21;99148.81;5096719;28;20041;-56
2022/09/06 10:53:03;;;;;;;1.60;1.00;;;;;;;28.50;42.17;99139.19;5103562;28;20048;-65
2022/09/06 10:55:31;;;;;;;2.35;1.10;;;;;;;28.50;42.16;99133.53;5110841;28;20051;-56
2022/09/06 10:58:03;;;;;;;1.77;0.98;;;;;;;28.48;41.98;99119.09;5108473;28;20039;-56
2022/09/06 11:00:35;;;;;;;2.03;1.00;;;;;;;28.51;41.91;99120.28;5100012;28;20060;-64
2022/09/06 11:03:09;;;;;;;3.17;0.90;;;;;;;28.51;41.89;99123.88;5096832;28;20193;-65
2022/09/06 11:05:42;;;;;;;1.48;0.85;;;;;;;28.53;41.66;99117.81;5086621;28;20051;-56
2022/09/06 11:08:42;;;;;;;1.75;0.70;;;;;;;28.52;41.76;99111.38;5103265;28;20063;-55
2022/09/06 11:11:20;;;;;;;1.50;0.80;;;;;;;28.54;41.75;99104.53;5017108;28;20042;-56
2022/09/06 11:13:46;;;;;;;1.45;0.80;;;;;;;28.54;41.58;99094.06;5013516;28;20084;-64
2022/09/06 11:16:21;;;;;;;1.55;0.90;;;;;;;28.54;41.50;99096.88;5007197;28;20135;-67
2022/09/06 11:18:53;;;;;;;1.13;0.70;;;;;;;28.52;41.65;99086.06;5013995;28;20077;-66
2022/09/06 11:21:37;;;;;;;1.67;0.90;;;;;;;28.55;41.44;99072.34;5019758;28;20125;-66
2022/09/06 11:24:14;;;;;;;1.40;0.75;;;;;;;28.52;41.51;99069.19;5022066;28;20041;-56
2022/09/06 11:27:12;;;;;;;2.13;0.88;;;;;;;28.55;41.30;99066.72;5020993;28;20053;-56
2022/09/06 11:29:41;;;;;;;2.35;0.90;;;;;;;28.57;41.41;99050.19;5013576;28;20045;-56
2022/09/06 11:32:47;;;;;;;4.03;1.10;;;;;;;28.59;41.57;99059.00;5010447;28;20509;-62
2022/09/06 11:35:29;;;;;;;4.05;1.38;;;;;;;28.61;41.78;99046.06;4980909;28;20100;-64
2022/09/06 11:38:00;;;;;;;7.15;1.92;;;;;;;28.59;42.13;99040.09;4985141;28;20050;-62
2022/09/06 11:40:34;;;;;;;11.35;1.90;;;;;;;28.61;42.51;99039.66;4983335;28;20135;-64
2022/09/06 11:42:59;;;;;;;15.95;3.08;;;;;;;28.63;42.36;99037.19;4979565;28;20047;-56
2022/09/06 11:45:48;;;;;;;11.75;2.50;;;;;;;28.63;41.69;99034.38;4983121;28;20455;-56
2022/09/06 11:48:23;;;;;;;12.30;2.70;;;;;;;28.54;43.55;99031.38;4997518;28;20037;-56